Oakville, CA (94562)

10:48 PM PDT on September 15, 2014 (GMT -0700)
KCAOAKVI6 | Change Station
CLOSE
Current Station
Personal Weather Station
Location: Oakville, CA
Elevation: 190 ft
Nearby Weather Stations

Elev 190 ft 38.41 °N, 122.39 °W | Updated 1 minute ago

Clear
Clear
64.2 °F
Feels Like 64.2 °F
N
0.0
Wind Variable Wind from NNW
Gusts 0.0 mph

Today
High -- | Low -- °F
--% Chance of Precip.
Yesterday
High -- | Low -- °F
Precip. -- in
6:51 AM 7:17 PM
Waning Gibbous, 48% visible
Pressure 29.95 in
Visibility 8.0 miles
Clouds Mostly Cloudy 500 ft
Overcast 1800 ft
Dew Point 53 °F
Humidity 66%
Rainfall 0.00 in
Snow Depth Not available.
UV 0.0 out of 12
Pollen 6.70 out of 12
PM2.5 Good
Flu Activity Not available.
METAR KO69 160535Z AUTO 31005KT 8SM BKN005 OVC018 15/14 A2995 RMK AO1

More Conditions Fewer Conditions

Pressure 29.95 in
Visibility 8.0 miles
Clouds Mostly Cloudy 500 ft
Overcast 1800 ft
Dew Point 53 °F
Humidity 66%
Rainfall 0.00 in
Snow Depth Not available.
UV 0.0 out of 12
Pollen 6.70 out of 12
PM2.5 Good
Flu Activity Not available.
METAR KO69 160535Z AUTO 31005KT 8SM BKN005 OVC018 15/14 A2995 RMK AO1

More Conditions Fewer Conditions

10-Day Weather Forecast

Almanac

Astronomy

Sep. 15, 2014 Rise Set
Actual Time 6:51 AM PDT 7:17 PM PDT
Civil Twilight 6:24 AM PDT 7:44 PM PDT
Nautical Twilight 5:53 AM PDT 8:15 PM PDT
Astronomical Twilight 5:21 AM PDT 8:47 PM PDT
Moon No Moon Rise 1:51 PM PDT (9/15)
Length of Visible Light 13h 19m
Length of Day
12h 26m
Tomorrow will be 2m 27s shorter.
Waning Gibbous, 48% of the Moon is Illuminated
Sep 16
Waning Gibbous
Sep 24
New
Oct 1
First Quarter
Oct 8
Full
Oct 15
Last Quarter

Yesterday's Extremes

State Highs State Lows

Community

WunderPhotos

Upload Photos

1,753,702 photos uploaded!

Nearby

Air Quality

  Air Quality AQ Index Pollutant
Yesterday Good
PM2.5
Yesterday Good
OZONE
Current Good
PM2.5
Monday Good
PM2.5
Tuesday Good
PM2.5
Wednesday Good
PM2.5
Thursday Good
PM2.5
Friday Good
PM2.5
Saturday Good
PM2.5

Snow Depth

Station Depth Elevation
CSS Lab 2 in 6900 ft
Echo Peak 0 in 7800 ft
Blue Lakes 0 in 8000 ft
Spratt Creek 1 in 6200 ft
Leavitt Lake 1 in 9400 ft

Earthquake Activity

City Distance Mag. Time & Date
Covelo, California 99 miles 3.3 1:17 PM PDT
2014-09-14
Cobb, California 34 miles 2.7 11:07 AM PDT
2014-09-14
Minimum magnitude displayed is 2.5.

Coastal Water Temperatures

Place Temperature
San Francisco, CA 64.0 °F
Richmond, CA 68.0 °F
Port Chicago, CA 70.0 °F

Nearby Weather Stations